createdAt,value
2022-08-07T00:01:43.746Z,30.88
2022-08-07T00:04:47.901Z,31.00
2022-08-07T00:07:59.856Z,30.91
2022-08-07T00:11:04.935Z,30.85
2022-08-07T00:14:10.657Z,30.98
2022-08-07T00:17:16.115Z,30.93
2022-08-07T00:20:29.711Z,30.97
2022-08-07T00:23:39.631Z,30.77
2022-08-07T00:26:49.349Z,30.73
2022-08-07T00:30:04.175Z,30.84
2022-08-07T00:33:07.751Z,30.71
2022-08-07T00:36:11.256Z,30.58
2022-08-07T00:39:17.482Z,30.41
2022-08-07T00:42:25.458Z,30.31
2022-08-07T00:45:32.420Z,30.31
2022-08-07T00:48:42.289Z,30.32
2022-08-07T00:51:57.766Z,30.21
2022-08-07T00:55:04.618Z,30.33
2022-08-07T00:58:13.784Z,30.22
2022-08-07T01:01:18.421Z,30.13
2022-08-07T01:04:24.987Z,30.09
2022-08-07T01:07:30.849Z,30.15
2022-08-07T01:10:34.496Z,29.97
2022-08-07T01:13:39.019Z,29.71
2022-08-07T01:17:04.066Z,29.95
2022-08-07T01:20:16.697Z,29.87
2022-08-07T01:23:20.564Z,29.76
2022-08-07T01:26:38.637Z,29.49
2022-08-07T01:29:42.559Z,29.59
2022-08-07T01:32:46.191Z,29.61
2022-08-07T01:35:54.302Z,29.55
2022-08-07T01:38:58.982Z,29.49
2022-08-07T01:42:36.983Z,29.40
2022-08-07T01:45:37.103Z,29.37
2022-08-07T01:48:46.585Z,29.37
2022-08-07T01:52:04.003Z,29.09
2022-08-07T01:55:09.863Z,29.11
2022-08-07T01:58:33.159Z,29.15
2022-08-07T02:02:00.057Z,29.24
2022-08-07T02:05:08.741Z,29.17
2022-08-07T02:08:23.873Z,29.08
2022-08-07T02:12:02.748Z,29.10
2022-08-07T02:14:56.057Z,29.10
2022-08-07T02:18:01.680Z,29.11
2022-08-07T02:21:06.832Z,28.87
2022-08-07T02:24:10.530Z,28.85
2022-08-07T02:27:23.920Z,28.94
2022-08-07T02:30:28.320Z,28.87
2022-08-07T02:33:32.823Z,28.85
2022-08-07T02:36:46.326Z,28.78
2022-08-07T02:40:11.698Z,28.70
2022-08-07T02:43:16.574Z,28.78
2022-08-07T02:46:22.725Z,28.85
2022-08-07T02:49:56.415Z,28.84
2022-08-07T02:53:00.826Z,28.70
2022-08-07T02:56:13.052Z,28.65
2022-08-07T02:59:27.792Z,28.51
2022-08-07T03:02:31.001Z,28.62
2022-08-07T03:05:37.849Z,28.48
2022-08-07T03:08:41.282Z,28.55
2022-08-07T03:11:51.627Z,28.26
2022-08-07T03:14:56.722Z,28.25
2022-08-07T03:18:00.180Z,28.37
2022-08-07T03:21:08.630Z,28.39
2022-08-07T03:24:19.872Z,28.48
2022-08-07T03:27:30.588Z,28.43
2022-08-07T03:30:34.548Z,28.30
2022-08-07T03:33:41.148Z,28.03
2022-08-07T03:36:45.146Z,28.05
2022-08-07T03:40:07.322Z,28.04
2022-08-07T03:43:14.633Z,28.21
2022-08-07T03:46:18.777Z,28.30
2022-08-07T03:49:21.992Z,28.14
2022-08-07T03:52:28.540Z,28.07
2022-08-07T03:55:53.372Z,27.80
2022-08-07T03:59:08.056Z,27.90
2022-08-07T04:02:12.458Z,28.08
2022-08-07T04:05:24.180Z,27.87
2022-08-07T04:08:42.865Z,27.71
2022-08-07T04:12:20.766Z,27.88
2022-08-07T04:15:11.498Z,27.43
2022-08-07T04:18:57.946Z,27.51
2022-08-07T04:21:38.795Z,27.60
2022-08-07T04:24:42.459Z,27.35
2022-08-07T04:27:46.216Z,27.38
2022-08-07T04:31:03.574Z,27.52
2022-08-07T04:34:16.644Z,27.35
2022-08-07T04:37:20.702Z,27.23
2022-08-07T04:40:29.763Z,27.38
2022-08-07T04:44:10.082Z,27.36
2022-08-07T04:48:01.373Z,27.39
2022-08-07T04:51:05.790Z,27.37
2022-08-07T04:54:39.893Z,27.10
2022-08-07T04:58:12.862Z,26.89
2022-08-07T05:01:50.604Z,27.12
2022-08-07T05:05:11.500Z,27.17
2022-08-07T05:09:00.744Z,27.09
2022-08-07T05:12:08.204Z,27.26
2022-08-07T05:15:23.367Z,27.00
2022-08-07T05:18:30.772Z,27.08
2022-08-07T05:22:00.655Z,27.04
2022-08-07T05:25:00.426Z,27.00
2022-08-07T05:28:20.674Z,26.67
2022-08-07T05:31:34.757Z,26.66
2022-08-07T05:34:39.057Z,26.77
2022-08-07T05:37:45.018Z,26.90
2022-08-07T05:40:50.661Z,26.78
2022-08-07T05:44:08.400Z,27.01
2022-08-07T05:47:18.691Z,26.88
2022-08-07T05:50:23.374Z,26.46
2022-08-07T05:54:12.423Z,26.44
2022-08-07T05:56:51.428Z,26.71
2022-08-07T05:59:57.156Z,26.82
2022-08-07T06:03:02.739Z,26.84
2022-08-07T06:06:09.442Z,26.60
2022-08-07T06:09:12.941Z,26.78
2022-08-07T06:12:16.337Z,26.98
2022-08-07T06:15:42.375Z,26.77
2022-08-07T06:18:51.881Z,26.77
2022-08-07T06:22:14.312Z,26.40
2022-08-07T06:25:23.473Z,26.30
2022-08-07T06:28:29.609Z,26.31
2022-08-07T06:31:47.030Z,26.19
2022-08-07T06:34:53.550Z,26.51
2022-08-07T06:37:56.634Z,26.34
2022-08-07T06:41:03.838Z,26.32
2022-08-07T06:44:12.470Z,26.22
2022-08-07T06:47:16.151Z,26.24
2022-08-07T06:50:19.434Z,26.51
2022-08-07T06:55:30.084Z,26.44
2022-08-07T06:56:50.613Z,26.60
2022-08-07T07:00:13.186Z,26.54
2022-08-07T07:03:17.454Z,26.37
2022-08-07T07:06:26.083Z,26.38
2022-08-07T07:09:31.743Z,26.50
2022-08-07T07:12:48.484Z,26.28
2022-08-07T07:15:58.001Z,26.22
2022-08-07T07:19:41.036Z,26.06
2022-08-07T07:22:36.280Z,26.01
2022-08-07T07:26:32.658Z,26.03
2022-08-07T07:29:57.100Z,26.08
2022-08-07T07:32:51.375Z,26.38
2022-08-07T07:36:05.301Z,26.24
2022-08-07T07:39:18.723Z,25.92
2022-08-07T07:42:25.931Z,26.07
2022-08-07T07:46:37.922Z,26.03
2022-08-07T07:49:08.902Z,26.05
2022-08-07T07:52:25.446Z,25.86
2022-08-07T07:55:37.820Z,25.91
2022-08-07T07:58:50.634Z,26.18
2022-08-07T08:02:03.683Z,26.04
2022-08-07T08:05:15.183Z,26.02
2022-08-07T08:08:35.527Z,25.96
2022-08-07T08:12:00.060Z,26.10
2022-08-07T08:15:07.042Z,26.05
2022-08-07T08:18:17.942Z,25.84
2022-08-07T08:21:22.472Z,25.60
2022-08-07T08:24:47.685Z,25.61
2022-08-07T08:28:04.485Z,25.77
2022-08-07T08:31:16.049Z,25.83
2022-08-07T08:34:26.969Z,25.87
2022-08-07T08:38:01.072Z,25.69
2022-08-07T08:41:58.788Z,25.68
2022-08-07T08:45:13.212Z,25.52
2022-08-07T08:49:00.546Z,25.92
2022-08-07T08:52:30.466Z,25.87
2022-08-07T08:56:10.910Z,25.96
2022-08-07T08:59:42.178Z,26.06
2022-08-07T09:03:01.252Z,25.82
2022-08-07T09:06:19.253Z,25.84
2022-08-07T09:09:40.575Z,25.70
2022-08-07T09:12:53.449Z,25.64
2022-08-07T09:16:22.378Z,25.77
2022-08-07T09:19:53.375Z,25.73
2022-08-07T09:24:30.717Z,25.74
2022-08-07T09:27:20.290Z,25.75
2022-08-07T09:30:28.032Z,25.63
2022-08-07T09:33:58.898Z,25.51
2022-08-07T09:37:48.594Z,25.42
2022-08-07T09:41:05.666Z,25.39
2022-08-07T09:47:24.370Z,25.42
2022-08-07T09:48:19.225Z,25.51
2022-08-07T09:52:15.631Z,25.56
2022-08-07T09:55:29.286Z,25.63
2022-08-07T09:58:51.728Z,25.11
2022-08-07T10:02:24.170Z,25.61
2022-08-07T10:06:04.395Z,25.56
2022-08-07T10:09:42.631Z,25.58
2022-08-07T10:13:55.166Z,25.87
2022-08-07T10:17:14.133Z,25.83
2022-08-07T10:20:31.862Z,25.64
2022-08-07T10:24:06.227Z,25.36
2022-08-07T10:27:10.451Z,25.44
2022-08-07T10:30:27.272Z,25.23
2022-08-07T10:34:14.583Z,25.38
2022-08-07T10:37:48.606Z,25.41
2022-08-07T10:41:01.581Z,25.38
2022-08-07T10:44:10.513Z,25.41
2022-08-07T10:47:27.070Z,25.51
2022-08-07T10:51:39.407Z,25.59
2022-08-07T10:54:53.105Z,25.12
2022-08-07T10:58:36.421Z,25.11
2022-08-07T11:02:04.740Z,25.09
2022-08-07T11:05:48.883Z,25.42
2022-08-07T11:09:11.545Z,25.21
2022-08-07T11:12:31.698Z,25.14
2022-08-07T11:15:40.393Z,25.10
2022-08-07T11:19:07.689Z,25.09
2022-08-07T11:22:33.379Z,25.36
2022-08-07T11:25:49.928Z,25.41
2022-08-07T11:29:40.796Z,25.24
2022-08-07T11:33:53.795Z,25.17
2022-08-07T11:37:02.144Z,25.25
2022-08-07T11:40:19.322Z,25.10
2022-08-07T11:43:41.398Z,24.82
2022-08-07T11:47:13.387Z,24.80
2022-08-07T11:50:31.896Z,25.11
2022-08-07T11:54:00.857Z,25.22
2022-08-07T11:57:59.321Z,25.49
2022-08-07T12:01:06.695Z,25.45
2022-08-07T12:04:42.890Z,25.64
2022-08-07T12:08:03.758Z,25.78
2022-08-07T12:11:22.468Z,25.71
2022-08-07T12:14:28.524Z,25.38
2022-08-07T12:17:58.749Z,25.44
2022-08-07T12:21:55.443Z,25.61
2022-08-07T12:25:02.306Z,25.79
2022-08-07T12:28:38.140Z,25.76
2022-08-07T12:32:03.622Z,25.97
2022-08-07T12:35:12.642Z,25.72
2022-08-07T12:38:39.163Z,25.93
2022-08-07T12:41:49.275Z,26.14
2022-08-07T12:44:57.363Z,26.03
2022-08-07T12:48:05.091Z,26.03
2022-08-07T12:51:46.667Z,26.34
2022-08-07T12:55:05.604Z,26.41
2022-08-07T12:58:15.316Z,26.53
2022-08-07T13:02:18.810Z,26.92
2022-08-07T13:06:03.939Z,27.26
2022-08-07T13:10:19.371Z,26.62
2022-08-07T13:13:48.937Z,26.74
2022-08-07T13:17:05.796Z,26.85
2022-08-07T13:20:41.106Z,27.40
2022-08-07T13:24:06.161Z,27.70
2022-08-07T13:27:20.531Z,27.71
2022-08-07T13:30:41.176Z,27.87
2022-08-07T13:34:31.190Z,28.19
2022-08-07T13:37:55.567Z,28.44
2022-08-07T13:46:07.885Z,28.75
2022-08-07T13:48:40.888Z,28.76
2022-08-07T13:52:22.820Z,28.83
2022-08-07T13:55:19.329Z,28.94
2022-08-07T13:58:31.578Z,29.30
2022-08-07T14:02:20.613Z,29.33
2022-08-07T14:05:37.930Z,29.19
2022-08-07T14:08:53.436Z,29.05
2022-08-07T14:12:04.806Z,29.51
2022-08-07T14:15:27.478Z,29.80
2022-08-07T14:18:49.927Z,29.18
2022-08-07T14:22:10.553Z,29.24
2022-08-07T14:25:18.883Z,29.91
2022-08-07T14:28:33.283Z,29.86
2022-08-07T14:31:55.980Z,30.24
2022-08-07T14:35:01.292Z,30.23
2022-08-07T14:38:08.020Z,30.62
2022-08-07T14:41:15.081Z,30.73
2022-08-07T14:44:19.902Z,30.71
2022-08-07T14:47:28.028Z,30.33
2022-08-07T14:50:37.755Z,30.28
2022-08-07T14:54:03.606Z,30.17
2022-08-07T14:57:14.895Z,30.53
2022-08-07T15:00:29.840Z,31.05
2022-08-07T15:06:57.925Z,30.61
2022-08-07T15:10:04.934Z,31.03
2022-08-07T15:13:17.791Z,30.79
2022-08-07T15:16:33.605Z,30.71
2022-08-07T15:20:16.165Z,29.85
2022-08-07T15:26:40.477Z,31.29
2022-08-07T15:30:08.800Z,31.73
2022-08-07T15:33:19.358Z,32.02
2022-08-07T15:37:02.703Z,31.85
2022-08-07T15:39:56.879Z,31.31
2022-08-07T15:43:52.785Z,31.02
2022-08-07T15:46:51.621Z,31.92
2022-08-07T15:50:05.813Z,31.46
2022-08-07T15:53:15.907Z,31.61
2022-08-07T15:56:24.097Z,31.65
2022-08-07T15:59:39.076Z,32.99
2022-08-07T16:02:46.981Z,33.36
2022-08-07T16:05:52.969Z,31.79
2022-08-07T16:09:23.093Z,31.15
2022-08-07T16:12:32.980Z,31.10
2022-08-07T16:15:58.847Z,31.61
2022-08-07T16:19:43.112Z,31.24
2022-08-07T16:23:05.528Z,31.81
2022-08-07T16:26:30.731Z,32.44
2022-08-07T16:30:10.125Z,31.89
2022-08-07T16:34:03.294Z,32.12
2022-08-07T16:38:05.266Z,33.11
2022-08-07T16:41:20.670Z,33.33
2022-08-07T16:45:14.750Z,33.58
2022-08-07T16:50:28.673Z,34.19
2022-08-07T16:52:57.453Z,34.45
2022-08-07T16:56:10.890Z,35.03
2022-08-07T16:59:47.544Z,35.13
2022-08-07T17:03:17.155Z,33.93
2022-08-07T17:06:42.554Z,34.05
2022-08-07T17:10:06.127Z,33.70
2022-08-07T17:13:20.498Z,33.12
2022-08-07T17:16:29.995Z,34.50
2022-08-07T17:20:00.838Z,34.78
2022-08-07T17:23:32.565Z,34.26
2022-08-07T17:26:55.987Z,34.50
2022-08-07T17:30:14.950Z,35.53
2022-08-07T17:34:09.492Z,33.92
2022-08-07T17:36:59.866Z,33.88
2022-08-07T17:40:30.485Z,34.68
2022-08-07T17:44:03.231Z,34.86
2022-08-07T17:47:42.412Z,33.86
2022-08-07T17:50:54.724Z,35.86
2022-08-07T17:54:29.881Z,36.15
2022-08-07T17:57:59.275Z,35.32
2022-08-07T18:01:21.016Z,35.00
2022-08-07T18:04:34.451Z,34.44
2022-08-07T18:07:43.562Z,34.36
2022-08-07T18:11:53.751Z,34.27
2022-08-07T18:14:38.933Z,33.75
2022-08-07T18:18:45.626Z,34.33
2022-08-07T18:21:30.693Z,35.01
2022-08-07T18:24:51.604Z,34.59
2022-08-07T18:27:54.958Z,35.47
2022-08-07T18:31:38.806Z,35.38
2022-08-07T18:35:00.636Z,36.12
2022-08-07T18:38:55.823Z,35.63
2022-08-07T18:41:56.135Z,35.35
2022-08-07T18:45:44.953Z,34.96
2022-08-07T18:50:31.133Z,35.59
2022-08-07T18:52:38.217Z,35.40
2022-08-07T18:56:30.824Z,36.16
2022-08-07T19:00:32.863Z,34.69
2022-08-07T19:03:38.134Z,35.88
2022-08-07T19:06:49.348Z,34.33
2022-08-07T19:10:03.288Z,34.16
2022-08-07T19:13:21.821Z,34.25
2022-08-07T19:17:01.457Z,34.18
2022-08-07T19:20:29.284Z,34.94
2022-08-07T19:23:58.788Z,36.22
2022-08-07T19:28:29.828Z,36.20
2022-08-07T19:30:58.633Z,36.18
2022-08-07T19:34:00.589Z,36.37
2022-08-07T19:37:16.973Z,35.45
2022-08-07T19:40:31.221Z,35.25
2022-08-07T19:43:43.634Z,35.74
2022-08-07T19:46:57.746Z,35.33
2022-08-07T19:50:41.399Z,35.79
2022-08-07T19:54:34.783Z,35.55
2022-08-07T19:58:03.121Z,36.06
2022-08-07T20:00:28.122Z,35.51
2022-08-07T20:03:34.924Z,35.32
2022-08-07T20:06:42.923Z,35.66
2022-08-07T20:10:37.126Z,35.32
2022-08-07T20:13:43.462Z,34.98
2022-08-07T20:16:47.029Z,35.35
2022-08-07T20:19:58.280Z,35.37
2022-08-07T20:23:23.461Z,34.95
2022-08-07T20:26:45.240Z,33.94
2022-08-07T20:30:07.534Z,34.76
2022-08-07T20:33:36.573Z,34.69
2022-08-07T20:36:42.682Z,35.08
2022-08-07T20:40:02.978Z,34.90
2022-08-07T20:43:19.407Z,34.84
2022-08-07T20:46:33.426Z,34.94
2022-08-07T20:49:57.994Z,34.98
2022-08-07T20:53:03.863Z,34.66
2022-08-07T20:56:10.265Z,34.97
2022-08-07T21:00:05.494Z,34.59
2022-08-07T21:02:55.360Z,34.68
2022-08-07T21:06:22.299Z,34.51
2022-08-07T21:09:35.415Z,33.52
2022-08-07T21:12:57.896Z,33.42
2022-08-07T21:16:03.205Z,33.88
2022-08-07T21:19:13.953Z,34.06
2022-08-07T21:22:19.294Z,33.79
2022-08-07T21:26:21.927Z,33.55
2022-08-07T21:29:33.566Z,33.19
2022-08-07T21:33:06.660Z,33.51
2022-08-07T21:36:57.970Z,33.89
2022-08-07T21:40:07.660Z,33.59
2022-08-07T21:43:23.283Z,33.15
2022-08-07T21:46:52.279Z,33.89
2022-08-07T21:50:14.683Z,33.59
2022-08-07T21:53:25.087Z,33.33
2022-08-07T21:57:16.083Z,33.43
2022-08-07T22:00:37.302Z,33.73
2022-08-07T22:04:12.335Z,33.66
2022-08-07T22:07:58.129Z,33.68
2022-08-07T22:11:00.961Z,33.55
2022-08-07T22:14:05.334Z,33.38
2022-08-07T22:17:20.265Z,33.58
2022-08-07T22:20:24.017Z,33.58
2022-08-07T22:23:31.417Z,33.58
2022-08-07T22:26:48.124Z,33.40
2022-08-07T22:30:12.679Z,33.42
2022-08-07T22:33:18.270Z,33.49
2022-08-07T22:36:57.911Z,33.46
2022-08-07T22:40:09.783Z,33.52
2022-08-07T22:43:18.710Z,33.36
2022-08-07T22:47:04.431Z,33.24
2022-08-07T22:51:10.051Z,33.31
2022-08-07T22:54:50.258Z,33.18
2022-08-07T22:58:19.425Z,33.33
2022-08-07T23:01:49.965Z,33.14
2022-08-07T23:06:07.613Z,32.95
2022-08-07T23:10:00.785Z,33.02
2022-08-07T23:12:52.707Z,32.48
2022-08-07T23:16:44.589Z,32.49
2022-08-07T23:20:04.362Z,32.54
2022-08-07T23:24:05.782Z,32.49
2022-08-07T23:27:33.801Z,32.60
2022-08-07T23:31:06.983Z,32.06
2022-08-07T23:34:39.982Z,31.71
2022-08-07T23:38:03.885Z,31.62
2022-08-07T23:41:33.453Z,30.97
2022-08-07T23:44:59.042Z,29.88
2022-08-07T23:48:24.937Z,29.82
2022-08-07T23:52:59.666Z,29.65
2022-08-07T23:55:52.962Z,29.60
2022-08-07T23:58:46.378Z,29.76
